Friday, September 21, 2018, 5:33 PM EDT
Back to Local

KBDR, Sikorsky Memorial Airport

Location: Stratford, CT, United States Lat: 41.167
Local Time: 5:33 PM EDT (21:33 GMT) Lon: -73.133
Time Zone: US/Eastern Elev: 9 ft

Show me the last for .
Show Coded

Time T Td Feel RH Dir Speed Gust Alt SLP Vis Weather Sky Remarks
2018-09-21 17:14 72 63 76 73 190° 13 - 30.09 - 10 FEW021 BKN026 OVC042 None
2018-09-21 16:52 71 62 76 73 200° 15 - 30.09 30.09 10 FEW029 OVC043 None
2018-09-21 16:16 71 61 76 70 190° 15 - 30.11 - 10 BKN028 OVC042 None
2018-09-21 15:52 71 60 76 68 190° 13 - 30.12 30.12 10 OVC042 None
2018-09-21 14:52 72 60 76 66 200° 14 - 30.15 30.15 10 FEW029 OVC043 None
2018-09-21 13:52 72 59 76 63 180° 14 - 30.17 30.16 10 OVC044 6-hr Min Temp (2pm): 66.9°F
6-hr Max Temp (2pm): 72.0°F
2018-09-21 12:52 71 59 76 65 180° 12 - 30.19 30.19 10 FEW032 OVC043 None
2018-09-21 11:52 70 58 - 65 180° 9 - 30.21 30.21 10 FEW027 OVC043 None
2018-09-21 10:52 70 58 - 65 170° 10 - 30.24 30.24 10 FEW029 OVC042 None
2018-09-21 09:52 69 59 - 70 170° 9 - 30.25 30.25 10 FEW026 BKN041 OVC055 None
2018-09-21 08:52 68 59 - 72 160° 9 - 30.27 30.27 10 SCT023 OVC046 None
2018-09-21 07:52 67 59 - 75 170° 10 - 30.27 30.27 10 SCT019 BKN065 6-hr Min Temp (8am): 66.9°F
6-hr Max Temp (8am): 66.9°F
2018-09-21 06:52 67 59 - 75 170° 10 - 30.27 30.27 10 FEW019 SCT027 OVC060 None
2018-09-21 05:52 67 60 - 78 170° 8 - 30.27 30.27 10 FEW019 SCT044 OVC060 None
2018-09-21 05:34 67 60 - 78 170° 8 - 30.26 - 10 SCT018 SCT044 OVC060 None
2018-09-21 04:52 67 59 - 75 160° 10 - 30.25 30.25 10 SCT020 BKN025 OVC060 None
2018-09-21 04:30 67 59 - 75 160° 9 - 30.24 - 10 SCT020 BKN028 OVC044 None
2018-09-21 04:18 67 59 - 75 160° 8 - 30.25 - 10 SCT020 BKN031 OVC042 None
2018-09-21 03:52 67 60 - 78 160° 8 - 30.25 30.24 10 SCT018 BKN024 OVC037 None
2018-09-21 03:27 67 60 - 78 150° 9 - 30.25 - 10 SCT019 BKN024 OVC049 None
2018-09-21 02:52 67 60 - 78 160° 9 - 30.25 30.25 10 FEW018 OVC037 None
2018-09-21 02:06 67 60 - 78 180° 9 - 30.26 - 10 SCT017 BKN023 OVC039 None
2018-09-21 01:52 67 60 - 78 160° 9 - 30.26 30.26 10 FEW019 BKN036 OVC044 6-hr Min Temp (2am): 66.9°F
6-hr Max Temp (2am): 69.1°F
2018-09-21 01:27 67 60 - 78 140° 10 - 30.26 - 10 SCT017 SCT025 OVC036 None
2018-09-21 00:52 67 60 - 78 150° 9 - 30.27 30.27 10 BKN017 BKN023 OVC033 24-hr Min Temp (1am): 63.0°F
24-hr Max Temp (1am): 72.0°F
2018-09-21 00:11 67 60 - 78 140° 9 - 30.26 - 10 BKN018 BKN032 OVC055 None
2018-09-21 00:00 67 60 - 78 140° 12 - 30.26 - 10 SCT018 BKN032 OVC055 None
2018-09-20 23:52 67 60 - 78 150° 8 - 30.27 30.27 10 SCT018 BKN024 OVC055 None
2018-09-20 23:49 66 61 - 82 150° 8 - 30.27 - 10 BKN018 BKN024 OVC055 None
2018-09-20 23:26 67 60 - 78 150° 12 - 30.27 - 10 SCT018 OVC031 None
2018-09-20 23:02 66 61 - 82 150° 7 - 30.27 - 10 SCT018 BKN029 OVC045 None
2018-09-20 22:52 67 60 - 78 150° 10 - 30.27 30.27 10 SCT020 OVC044 None
2018-09-20 22:50 66 61 - 82 150° 10 - 30.27 - 10 SCT020 OVC044 None
2018-09-20 22:16 67 60 - 78 150° 10 - 30.27 - 10 SCT019 BKN024 OVC043 None
2018-09-20 21:52 67 60 - 78 140° 9 - 30.27 30.27 10 OVC043 None
2018-09-20 20:52 68 60 - 75 150° 9 - 30.26 30.25 10 FEW020 SCT034 OVC048 None
2018-09-20 19:52 70 60 - 70 170° 7 - 30.23 30.23 10 FEW024 BKN033 OVC050 6-hr Min Temp (8pm): 69.1°F
6-hr Max Temp (8pm): 72.0°F
2018-09-20 18:52 69 57 - 65 180° 3 - 30.24 30.23 10 OVC050 None
2018-09-20 17:52 70 59 - 68 180° 3 - 30.23 30.23 10 SCT050 None

Support USWX by starting your Amazon purchase here.